sensor_id;sensor_type;location;lat;lon;timestamp;temperature;humidity
11818;DHT22;5966;52.402;5.322;2022-12-07T00:00:00;5.60;99.90
11818;DHT22;5966;52.402;5.322;2022-12-07T00:02:29;5.60;99.90
11818;DHT22;5966;52.402;5.322;2022-12-07T00:05:09;5.60;99.90
11818;DHT22;5966;52.402;5.322;2022-12-07T00:07:38;5.60;99.90
11818;DHT22;5966;52.402;5.322;2022-12-07T00:10:08;5.60;99.90
11818;DHT22;5966;52.402;5.322;2022-12-07T00:13:06;5.60;99.90
11818;DHT22;5966;52.402;5.322;2022-12-07T00:15:35;5.50;99.90
11818;DHT22;5966;52.402;5.322;2022-12-07T00:18:03;5.50;99.90
11818;DHT22;5966;52.402;5.322;2022-12-07T00:20:32;5.50;99.90
11818;DHT22;5966;52.402;5.322;2022-12-07T00:23:02;5.50;99.90
11818;DHT22;5966;52.402;5.322;2022-12-07T00:25:31;5.50;99.90
11818;DHT22;5966;52.402;5.322;2022-12-07T00:27:59;5.50;99.90
11818;DHT22;5966;52.402;5.322;2022-12-07T00:30:34;5.40;99.90
11818;DHT22;5966;52.402;5.322;2022-12-07T00:55:58;5.40;99.90
11818;DHT22;5966;52.402;5.322;2022-12-07T00:59:31;5.40;99.90
11818;DHT22;5966;52.402;5.322;2022-12-07T01:02:40;5.40;99.90
11818;DHT22;5966;52.402;5.322;2022-12-07T01:05:39;5.30;99.90
11818;DHT22;5966;52.402;5.322;2022-12-07T01:25:38;5.30;99.90
11818;DHT22;5966;52.402;5.322;2022-12-07T01:28:15;5.30;99.90
11818;DHT22;5966;52.402;5.322;2022-12-07T01:50:04;5.50;99.90
11818;DHT22;5966;52.402;5.322;2022-12-07T01:53:08;5.50;99.90
11818;DHT22;5966;52.402;5.322;2022-12-07T01:55:42;5.50;99.90
11818;DHT22;5966;52.402;5.322;2022-12-07T01:58:11;5.50;99.90
11818;DHT22;5966;52.402;5.322;2022-12-07T02:00:42;5.50;99.90
11818;DHT22;5966;52.402;5.322;2022-12-07T02:03:15;5.50;99.90
11818;DHT22;5966;52.402;5.322;2022-12-07T02:05:47;5.60;99.90
11818;DHT22;5966;52.402;5.322;2022-12-07T02:08:16;5.60;99.90
11818;DHT22;5966;52.402;5.322;2022-12-07T02:10:46;5.60;99.90
11818;DHT22;5966;52.402;5.322;2022-12-07T02:13:16;5.60;99.90
11818;DHT22;5966;52.402;5.322;2022-12-07T02:16:03;5.60;99.90
11818;DHT22;5966;52.402;5.322;2022-12-07T02:18:44;5.60;99.90
11818;DHT22;5966;52.402;5.322;2022-12-07T02:21:25;5.60;99.90
11818;DHT22;5966;52.402;5.322;2022-12-07T02:24:13;5.60;99.90
11818;DHT22;5966;52.402;5.322;2022-12-07T02:27:20;5.60;99.90
11818;DHT22;5966;52.402;5.322;2022-12-07T02:29:59;5.60;99.90
11818;DHT22;5966;52.402;5.322;2022-12-07T02:32:36;5.60;99.90
11818;DHT22;5966;52.402;5.322;2022-12-07T02:35:12;5.60;99.90
11818;DHT22;5966;52.402;5.322;2022-12-07T02:37:55;5.60;99.90
11818;DHT22;5966;52.402;5.322;2022-12-07T02:40:31;5.60;99.90
11818;DHT22;5966;52.402;5.322;2022-12-07T02:43:06;5.60;99.90
11818;DHT22;5966;52.402;5.322;2022-12-07T02:45:41;5.60;99.90
11818;DHT22;5966;52.402;5.322;2022-12-07T02:48:14;5.70;99.90
11818;DHT22;5966;52.402;5.322;2022-12-07T02:50:45;5.70;99.90
11818;DHT22;5966;52.402;5.322;2022-12-07T02:53:32;5.70;99.90
11818;DHT22;5966;52.402;5.322;2022-12-07T02:56:05;5.70;99.90
11818;DHT22;5966;52.402;5.322;2022-12-07T02:58:42;5.70;99.90
11818;DHT22;5966;52.402;5.322;2022-12-07T03:01:22;5.70;99.90
11818;DHT22;5966;52.402;5.322;2022-12-07T03:04:01;5.70;99.90
11818;DHT22;5966;52.402;5.322;2022-12-07T03:06:39;5.70;99.90
11818;DHT22;5966;52.402;5.322;2022-12-07T03:09:13;5.70;99.90
11818;DHT22;5966;52.402;5.322;2022-12-07T03:11:46;5.60;99.90
11818;DHT22;5966;52.402;5.322;2022-12-07T03:14:26;5.60;99.90
11818;DHT22;5966;52.402;5.322;2022-12-07T03:17:02;5.60;99.90
11818;DHT22;5966;52.402;5.322;2022-12-07T03:19:32;5.60;99.90
11818;DHT22;5966;52.402;5.322;2022-12-07T03:22:03;5.60;99.90
11818;DHT22;5966;52.402;5.322;2022-12-07T03:24:37;5.50;99.90
11818;DHT22;5966;52.402;5.322;2022-12-07T03:27:12;5.60;99.90
11818;DHT22;5966;52.402;5.322;2022-12-07T03:29:46;5.60;99.90
11818;DHT22;5966;52.402;5.322;2022-12-07T03:32:22;5.50;99.90
11818;DHT22;5966;52.402;5.322;2022-12-07T03:34:55;5.50;99.90
11818;DHT22;5966;52.402;5.322;2022-12-07T03:37:30;5.50;99.90
11818;DHT22;5966;52.402;5.322;2022-12-07T03:40:05;5.50;99.90
11818;DHT22;5966;52.402;5.322;2022-12-07T03:42:36;5.50;99.90
11818;DHT22;5966;52.402;5.322;2022-12-07T03:45:09;5.50;99.90
11818;DHT22;5966;52.402;5.322;2022-12-07T03:47:45;5.60;99.90
11818;DHT22;5966;52.402;5.322;2022-12-07T03:50:28;5.60;99.90
11818;DHT22;5966;52.402;5.322;2022-12-07T03:53:20;5.60;99.90
11818;DHT22;5966;52.402;5.322;2022-12-07T03:55:52;5.60;99.90
11818;DHT22;5966;52.402;5.322;2022-12-07T03:58:22;5.50;99.90
11818;DHT22;5966;52.402;5.322;2022-12-07T04:00:51;5.50;99.90
11818;DHT22;5966;52.402;5.322;2022-12-07T04:03:21;5.50;99.90
11818;DHT22;5966;52.402;5.322;2022-12-07T04:05:50;5.50;99.90
11818;DHT22;5966;52.402;5.322;2022-12-07T04:08:18;5.50;99.90
11818;DHT22;5966;52.402;5.322;2022-12-07T04:10:46;5.40;99.90
11818;DHT22;5966;52.402;5.322;2022-12-07T04:13:14;5.40;99.90
11818;DHT22;5966;52.402;5.322;2022-12-07T04:15:42;5.40;99.90
11818;DHT22;5966;52.402;5.322;2022-12-07T04:18:10;5.30;99.90
11818;DHT22;5966;52.402;5.322;2022-12-07T04:20:39;5.30;99.90
11818;DHT22;5966;52.402;5.322;2022-12-07T04:23:07;5.20;99.90
11818;DHT22;5966;52.402;5.322;2022-12-07T04:25:35;5.30;99.90
11818;DHT22;5966;52.402;5.322;2022-12-07T04:28:04;5.30;99.90
11818;DHT22;5966;52.402;5.322;2022-12-07T04:30:32;5.20;99.90
11818;DHT22;5966;52.402;5.322;2022-12-07T04:33:00;5.20;99.90
11818;DHT22;5966;52.402;5.322;2022-12-07T04:35:27;5.20;99.90
11818;DHT22;5966;52.402;5.322;2022-12-07T04:37:57;5.20;99.90
11818;DHT22;5966;52.402;5.322;2022-12-07T04:40:25;5.20;99.90
11818;DHT22;5966;52.402;5.322;2022-12-07T04:42:52;5.20;99.90
11818;DHT22;5966;52.402;5.322;2022-12-07T04:45:20;5.20;99.90
11818;DHT22;5966;52.402;5.322;2022-12-07T04:47:48;5.20;99.90
11818;DHT22;5966;52.402;5.322;2022-12-07T04:50:16;5.20;99.90
11818;DHT22;5966;52.402;5.322;2022-12-07T04:52:44;5.30;99.90
11818;DHT22;5966;52.402;5.322;2022-12-07T04:55:14;5.30;99.90
11818;DHT22;5966;52.402;5.322;2022-12-07T04:57:42;5.30;99.90
11818;DHT22;5966;52.402;5.322;2022-12-07T05:00:10;5.30;99.90
11818;DHT22;5966;52.402;5.322;2022-12-07T05:02:38;5.40;99.90
11818;DHT22;5966;52.402;5.322;2022-12-07T05:05:07;5.40;99.90
11818;DHT22;5966;52.402;5.322;2022-12-07T05:07:35;5.40;99.90
11818;DHT22;5966;52.402;5.322;2022-12-07T05:10:03;5.40;99.90
11818;DHT22;5966;52.402;5.322;2022-12-07T05:12:33;5.50;99.90
11818;DHT22;5966;52.402;5.322;2022-12-07T05:15:01;5.50;99.90
11818;DHT22;5966;52.402;5.322;2022-12-07T05:17:28;5.50;99.90
11818;DHT22;5966;52.402;5.322;2022-12-07T05:19:56;5.50;99.90
11818;DHT22;5966;52.402;5.322;2022-12-07T05:22:25;5.50;99.90
11818;DHT22;5966;52.402;5.322;2022-12-07T05:24:54;5.50;99.90
11818;DHT22;5966;52.402;5.322;2022-12-07T05:27:22;5.50;99.90
11818;DHT22;5966;52.402;5.322;2022-12-07T05:29:53;5.50;99.90
11818;DHT22;5966;52.402;5.322;2022-12-07T05:32:21;5.50;99.90
11818;DHT22;5966;52.402;5.322;2022-12-07T05:34:49;5.50;99.90
11818;DHT22;5966;52.402;5.322;2022-12-07T05:37:16;5.50;99.90
11818;DHT22;5966;52.402;5.322;2022-12-07T05:39:44;5.50;99.90
11818;DHT22;5966;52.402;5.322;2022-12-07T05:42:12;5.50;99.90
11818;DHT22;5966;52.402;5.322;2022-12-07T05:44:42;5.50;99.90
11818;DHT22;5966;52.402;5.322;2022-12-07T05:47:12;5.50;99.90
11818;DHT22;5966;52.402;5.322;2022-12-07T05:52:50;5.50;99.90
11818;DHT22;5966;52.402;5.322;2022-12-07T05:55:17;5.50;99.90
11818;DHT22;5966;52.402;5.322;2022-12-07T05:57:45;5.40;99.90
11818;DHT22;5966;52.402;5.322;2022-12-07T06:00:27;5.40;99.90
11818;DHT22;5966;52.402;5.322;2022-12-07T06:02:57;5.40;99.90
11818;DHT22;5966;52.402;5.322;2022-12-07T06:05:25;5.40;99.90
11818;DHT22;5966;52.402;5.322;2022-12-07T06:07:53;5.40;99.90
11818;DHT22;5966;52.402;5.322;2022-12-07T06:10:21;5.40;99.90
11818;DHT22;5966;52.402;5.322;2022-12-07T06:12:52;5.30;99.90
11818;DHT22;5966;52.402;5.322;2022-12-07T06:15:26;5.40;99.90
11818;DHT22;5966;52.402;5.322;2022-12-07T06:17:58;5.30;99.90
11818;DHT22;5966;52.402;5.322;2022-12-07T06:20:32;5.30;99.90
11818;DHT22;5966;52.402;5.322;2022-12-07T06:23:10;5.30;99.90
11818;DHT22;5966;52.402;5.322;2022-12-07T06:25:45;5.30;99.90
11818;DHT22;5966;52.402;5.322;2022-12-07T06:30:57;5.20;99.90
11818;DHT22;5966;52.402;5.322;2022-12-07T06:33:29;5.20;99.90
11818;DHT22;5966;52.402;5.322;2022-12-07T06:35:57;5.10;99.90
11818;DHT22;5966;52.402;5.322;2022-12-07T06:38:25;5.10;99.90
11818;DHT22;5966;52.402;5.322;2022-12-07T06:40:53;5.00;99.90
11818;DHT22;5966;52.402;5.322;2022-12-07T06:43:21;5.00;99.90
11818;DHT22;5966;52.402;5.322;2022-12-07T06:45:49;4.90;99.90
11818;DHT22;5966;52.402;5.322;2022-12-07T06:48:17;4.90;99.90
11818;DHT22;5966;52.402;5.322;2022-12-07T06:50:47;4.80;99.90
11818;DHT22;5966;52.402;5.322;2022-12-07T06:53:21;4.80;99.90
11818;DHT22;5966;52.402;5.322;2022-12-07T06:55:49;4.80;99.90
11818;DHT22;5966;52.402;5.322;2022-12-07T06:58:17;4.70;99.90
11818;DHT22;5966;52.402;5.322;2022-12-07T07:00:47;4.70;99.90
11818;DHT22;5966;52.402;5.322;2022-12-07T07:03:15;4.60;99.90
11818;DHT22;5966;52.402;5.322;2022-12-07T07:05:44;4.60;99.90
11818;DHT22;5966;52.402;5.322;2022-12-07T07:08:13;4.60;99.90
11818;DHT22;5966;52.402;5.322;2022-12-07T07:10:50;4.60;99.90
11818;DHT22;5966;52.402;5.322;2022-12-07T07:13:18;4.60;99.90
11818;DHT22;5966;52.402;5.322;2022-12-07T07:15:46;4.60;99.90
11818;DHT22;5966;52.402;5.322;2022-12-07T07:18:14;4.60;99.90
11818;DHT22;5966;52.402;5.322;2022-12-07T07:20:42;4.50;99.90
11818;DHT22;5966;52.402;5.322;2022-12-07T07:23:10;4.50;99.90
11818;DHT22;5966;52.402;5.322;2022-12-07T07:25:39;4.40;99.90
11818;DHT22;5966;52.402;5.322;2022-12-07T07:28:07;4.40;99.90
11818;DHT22;5966;52.402;5.322;2022-12-07T07:30:35;4.40;99.90
11818;DHT22;5966;52.402;5.322;2022-12-07T07:33:04;4.20;99.90
11818;DHT22;5966;52.402;5.322;2022-12-07T07:35:33;4.20;99.90
11818;DHT22;5966;52.402;5.322;2022-12-07T07:38:02;4.20;99.90
11818;DHT22;5966;52.402;5.322;2022-12-07T07:40:30;4.30;99.90
11818;DHT22;5966;52.402;5.322;2022-12-07T07:42:59;4.30;99.90
11818;DHT22;5966;52.402;5.322;2022-12-07T07:45:27;4.40;99.90
11818;DHT22;5966;52.402;5.322;2022-12-07T07:47:55;4.40;99.90
11818;DHT22;5966;52.402;5.322;2022-12-07T07:50:24;4.40;99.90
11818;DHT22;5966;52.402;5.322;2022-12-07T07:52:52;4.50;99.90
11818;DHT22;5966;52.402;5.322;2022-12-07T07:55:20;4.60;99.90
11818;DHT22;5966;52.402;5.322;2022-12-07T07:57:48;4.60;99.90
11818;DHT22;5966;52.402;5.322;2022-12-07T08:00:22;4.60;99.90
11818;DHT22;5966;52.402;5.322;2022-12-07T08:02:50;4.70;99.90
11818;DHT22;5966;52.402;5.322;2022-12-07T08:05:18;4.70;99.90
11818;DHT22;5966;52.402;5.322;2022-12-07T08:07:46;4.80;99.90
11818;DHT22;5966;52.402;5.322;2022-12-07T08:10:15;4.80;99.90
11818;DHT22;5966;52.402;5.322;2022-12-07T08:12:43;4.80;99.90
11818;DHT22;5966;52.402;5.322;2022-12-07T08:15:31;4.80;99.90
11818;DHT22;5966;52.402;5.322;2022-12-07T08:17:59;4.90;99.90
11818;DHT22;5966;52.402;5.322;2022-12-07T08:20:29;4.90;99.90
11818;DHT22;5966;52.402;5.322;2022-12-07T08:22:58;4.90;99.90
11818;DHT22;5966;52.402;5.322;2022-12-07T08:25:27;5.00;99.90
11818;DHT22;5966;52.402;5.322;2022-12-07T08:27:56;5.00;99.90
11818;DHT22;5966;52.402;5.322;2022-12-07T08:30:24;5.00;99.90
11818;DHT22;5966;52.402;5.322;2022-12-07T08:32:57;5.00;99.90
11818;DHT22;5966;52.402;5.322;2022-12-07T08:35:25;5.00;99.90
11818;DHT22;5966;52.402;5.322;2022-12-07T08:37:54;5.10;99.90
11818;DHT22;5966;52.402;5.322;2022-12-07T08:40:24;5.10;99.90
11818;DHT22;5966;52.402;5.322;2022-12-07T08:42:53;5.10;99.90
11818;DHT22;5966;52.402;5.322;2022-12-07T08:45:21;5.10;99.90
11818;DHT22;5966;52.402;5.322;2022-12-07T08:47:58;5.10;99.90
11818;DHT22;5966;52.402;5.322;2022-12-07T08:50:31;5.10;99.90
11818;DHT22;5966;52.402;5.322;2022-12-07T08:53:01;5.20;99.90
11818;DHT22;5966;52.402;5.322;2022-12-07T08:55:31;5.20;99.90
11818;DHT22;5966;52.402;5.322;2022-12-07T08:57:59;5.20;99.90
11818;DHT22;5966;52.402;5.322;2022-12-07T09:00:29;5.20;99.90
11818;DHT22;5966;52.402;5.322;2022-12-07T09:02:58;5.30;99.90
11818;DHT22;5966;52.402;5.322;2022-12-07T09:05:26;5.30;99.90
11818;DHT22;5966;52.402;5.322;2022-12-07T09:07:57;5.30;99.90
11818;DHT22;5966;52.402;5.322;2022-12-07T09:10:27;5.30;99.90
11818;DHT22;5966;52.402;5.322;2022-12-07T09:12:56;5.30;99.90
11818;DHT22;5966;52.402;5.322;2022-12-07T09:15:27;5.30;99.90
11818;DHT22;5966;52.402;5.322;2022-12-07T09:17:55;5.40;99.90
11818;DHT22;5966;52.402;5.322;2022-12-07T09:21:04;5.40;99.90
11818;DHT22;5966;52.402;5.322;2022-12-07T09:23:45;5.50;99.90
11818;DHT22;5966;52.402;5.322;2022-12-07T09:26:24;5.50;99.90
11818;DHT22;5966;52.402;5.322;2022-12-07T09:28:52;5.50;99.90
11818;DHT22;5966;52.402;5.322;2022-12-07T09:31:42;5.60;99.90
11818;DHT22;5966;52.402;5.322;2022-12-07T09:34:46;5.60;99.90
11818;DHT22;5966;52.402;5.322;2022-12-07T09:37:19;5.60;99.90
11818;DHT22;5966;52.402;5.322;2022-12-07T09:39:47;5.60;99.90
11818;DHT22;5966;52.402;5.322;2022-12-07T09:42:39;5.60;99.90
11818;DHT22;5966;52.402;5.322;2022-12-07T09:45:30;5.70;99.90
11818;DHT22;5966;52.402;5.322;2022-12-07T09:48:52;5.70;99.90
11818;DHT22;5966;52.402;5.322;2022-12-07T09:52:03;5.70;99.90
11818;DHT22;5966;52.402;5.322;2022-12-07T09:55:15;5.80;99.90
11818;DHT22;5966;52.402;5.322;2022-12-07T10:00:37;5.80;99.90
11818;DHT22;5966;52.402;5.322;2022-12-07T10:03:29;5.80;99.90
11818;DHT22;5966;52.402;5.322;2022-12-07T10:05:59;5.80;99.90
11818;DHT22;5966;52.402;5.322;2022-12-07T10:11:02;5.80;99.90
11818;DHT22;5966;52.402;5.322;2022-12-07T10:13:52;5.80;99.90
11818;DHT22;5966;52.402;5.322;2022-12-07T10:22:30;5.80;99.90
11818;DHT22;5966;52.402;5.322;2022-12-07T10:25:25;5.90;99.90
11818;DHT22;5966;52.402;5.322;2022-12-07T10:41:30;6.00;99.90
11818;DHT22;5966;52.402;5.322;2022-12-07T10:44:02;6.00;99.90
11818;DHT22;5966;52.402;5.322;2022-12-07T10:46:49;6.10;99.90
11818;DHT22;5966;52.402;5.322;2022-12-07T10:53:09;6.20;99.90
11818;DHT22;5966;52.402;5.322;2022-12-07T10:56:40;6.20;99.90
11818;DHT22;5966;52.402;5.322;2022-12-07T11:00:00;6.20;99.90
11818;DHT22;5966;52.402;5.322;2022-12-07T11:03:13;6.20;99.90
11818;DHT22;5966;52.402;5.322;2022-12-07T11:06:20;6.20;99.90
11818;DHT22;5966;52.402;5.322;2022-12-07T11:09:06;6.20;99.90
11818;DHT22;5966;52.402;5.322;2022-12-07T11:13:04;6.20;99.90
11818;DHT22;5966;52.402;5.322;2022-12-07T11:16:24;6.20;99.90
11818;DHT22;5966;52.402;5.322;2022-12-07T11:19:11;6.20;99.90
11818;DHT22;5966;52.402;5.322;2022-12-07T11:22:09;6.20;99.90
11818;DHT22;5966;52.402;5.322;2022-12-07T11:25:13;6.20;99.90
11818;DHT22;5966;52.402;5.322;2022-12-07T11:28:30;6.20;99.90
11818;DHT22;5966;52.402;5.322;2022-12-07T11:31:09;6.20;99.90
11818;DHT22;5966;52.402;5.322;2022-12-07T11:33:45;6.20;99.90
11818;DHT22;5966;52.402;5.322;2022-12-07T11:36:33;6.20;99.90
11818;DHT22;5966;52.402;5.322;2022-12-07T11:39:12;6.30;99.90
11818;DHT22;5966;52.402;5.322;2022-12-07T11:44:27;6.30;99.90
11818;DHT22;5966;52.402;5.322;2022-12-07T11:47:05;6.40;99.90
11818;DHT22;5966;52.402;5.322;2022-12-07T11:49:57;6.40;99.90
11818;DHT22;5966;52.402;5.322;2022-12-07T11:52:44;6.40;99.90
11818;DHT22;5966;52.402;5.322;2022-12-07T12:01:06;6.70;99.90
11818;DHT22;5966;52.402;5.322;2022-12-07T12:03:40;6.80;99.90
11818;DHT22;5966;52.402;5.322;2022-12-07T12:06:19;6.80;99.90
11818;DHT22;5966;52.402;5.322;2022-12-07T12:08:52;6.80;99.90
11818;DHT22;5966;52.402;5.322;2022-12-07T12:12:17;6.80;99.90
11818;DHT22;5966;52.402;5.322;2022-12-07T12:15:23;6.80;99.90
11818;DHT22;5966;52.402;5.322;2022-12-07T12:18:22;6.80;99.90
11818;DHT22;5966;52.402;5.322;2022-12-07T12:21:22;6.80;99.90
11818;DHT22;5966;52.402;5.322;2022-12-07T12:24:02;6.80;99.90
11818;DHT22;5966;52.402;5.322;2022-12-07T12:26:32;6.70;99.90
11818;DHT22;5966;52.402;5.322;2022-12-07T12:29:02;6.70;99.90
11818;DHT22;5966;52.402;5.322;2022-12-07T12:31:36;6.70;99.90
11818;DHT22;5966;52.402;5.322;2022-12-07T12:34:32;6.70;99.90
11818;DHT22;5966;52.402;5.322;2022-12-07T12:39:33;6.70;99.90
11818;DHT22;5966;52.402;5.322;2022-12-07T12:42:01;6.70;99.90
11818;DHT22;5966;52.402;5.322;2022-12-07T12:44:40;6.70;99.90
11818;DHT22;5966;52.402;5.322;2022-12-07T12:47:39;6.80;99.90
11818;DHT22;5966;52.402;5.322;2022-12-07T12:50:28;6.80;99.90
11818;DHT22;5966;52.402;5.322;2022-12-07T12:53:16;6.90;99.90
11818;DHT22;5966;52.402;5.322;2022-12-07T12:58:32;7.00;99.90
11818;DHT22;5966;52.402;5.322;2022-12-07T13:07:58;7.20;99.90
11818;DHT22;5966;52.402;5.322;2022-12-07T13:10:40;7.10;99.90
11818;DHT22;5966;52.402;5.322;2022-12-07T13:18:51;6.70;99.90
11818;DHT22;5966;52.402;5.322;2022-12-07T13:21:43;6.60;99.90
11818;DHT22;5966;52.402;5.322;2022-12-07T13:24:13;6.50;99.90
11818;DHT22;5966;52.402;5.322;2022-12-07T13:26:42;6.30;99.90
11818;DHT22;5966;52.402;5.322;2022-12-07T13:29:14;6.20;99.90
11818;DHT22;5966;52.402;5.322;2022-12-07T13:32:04;6.10;99.90
11818;DHT22;5966;52.402;5.322;2022-12-07T13:34:36;6.10;99.90
11818;DHT22;5966;52.402;5.322;2022-12-07T13:42:31;6.20;99.90
11818;DHT22;5966;52.402;5.322;2022-12-07T13:45:20;6.20;99.90
11818;DHT22;5966;52.402;5.322;2022-12-07T13:47:54;6.30;99.90
11818;DHT22;5966;52.402;5.322;2022-12-07T13:50:26;6.30;99.90
11818;DHT22;5966;52.402;5.322;2022-12-07T13:52:57;6.30;99.90
11818;DHT22;5966;52.402;5.322;2022-12-07T13:55:31;6.40;99.90
11818;DHT22;5966;52.402;5.322;2022-12-07T13:58:03;6.40;99.90
11818;DHT22;5966;52.402;5.322;2022-12-07T14:00:33;6.40;99.90
11818;DHT22;5966;52.402;5.322;2022-12-07T14:03:03;6.40;99.90
11818;DHT22;5966;52.402;5.322;2022-12-07T14:05:34;6.40;99.90
11818;DHT22;5966;52.402;5.322;2022-12-07T14:08:05;6.40;99.90
11818;DHT22;5966;52.402;5.322;2022-12-07T14:10:35;6.40;99.90
11818;DHT22;5966;52.402;5.322;2022-12-07T14:13:26;6.40;99.90
11818;DHT22;5966;52.402;5.322;2022-12-07T14:15:55;6.40;99.90
11818;DHT22;5966;52.402;5.322;2022-12-07T14:18:28;6.40;99.90
11818;DHT22;5966;52.402;5.322;2022-12-07T14:21:04;6.40;99.90
11818;DHT22;5966;52.402;5.322;2022-12-07T14:23:32;6.40;99.90
11818;DHT22;5966;52.402;5.322;2022-12-07T14:26:06;6.40;99.90
11818;DHT22;5966;52.402;5.322;2022-12-07T14:28:37;6.40;99.90
11818;DHT22;5966;52.402;5.322;2022-12-07T14:31:11;6.50;99.90
11818;DHT22;5966;52.402;5.322;2022-12-07T14:33:49;6.40;99.90
11818;DHT22;5966;52.402;5.322;2022-12-07T14:36:17;6.50;99.90
11818;DHT22;5966;52.402;5.322;2022-12-07T14:38:45;6.40;99.90
11818;DHT22;5966;52.402;5.322;2022-12-07T14:41:16;6.40;99.90
11818;DHT22;5966;52.402;5.322;2022-12-07T14:44:08;6.40;99.90
11818;DHT22;5966;52.402;5.322;2022-12-07T14:46:55;6.40;99.90
11818;DHT22;5966;52.402;5.322;2022-12-07T14:49:43;6.40;99.90
11818;DHT22;5966;52.402;5.322;2022-12-07T14:52:17;6.40;99.90
11818;DHT22;5966;52.402;5.322;2022-12-07T14:55:13;6.30;99.90
11818;DHT22;5966;52.402;5.322;2022-12-07T14:57:42;6.30;99.90
11818;DHT22;5966;52.402;5.322;2022-12-07T15:00:15;6.30;99.90
11818;DHT22;5966;52.402;5.322;2022-12-07T15:02:44;6.20;99.90
11818;DHT22;5966;52.402;5.322;2022-12-07T15:05:13;6.20;99.90
11818;DHT22;5966;52.402;5.322;2022-12-07T15:07:43;6.10;99.90
11818;DHT22;5966;52.402;5.322;2022-12-07T15:10:16;6.00;99.90
11818;DHT22;5966;52.402;5.322;2022-12-07T15:12:49;6.00;99.90
11818;DHT22;5966;52.402;5.322;2022-12-07T15:15:21;5.90;99.90
11818;DHT22;5966;52.402;5.322;2022-12-07T15:20:47;5.90;99.90
11818;DHT22;5966;52.402;5.322;2022-12-07T15:26:48;5.80;99.90
11818;DHT22;5966;52.402;5.322;2022-12-07T15:29:36;5.80;99.90
11818;DHT22;5966;52.402;5.322;2022-12-07T15:32:44;5.80;99.90
11818;DHT22;5966;52.402;5.322;2022-12-07T15:35:19;5.80;99.90
11818;DHT22;5966;52.402;5.322;2022-12-07T15:37:57;5.80;99.90
11818;DHT22;5966;52.402;5.322;2022-12-07T15:40:54;5.70;99.90
11818;DHT22;5966;52.402;5.322;2022-12-07T15:43:44;5.70;99.90
11818;DHT22;5966;52.402;5.322;2022-12-07T15:46:44;5.60;99.90
11818;DHT22;5966;52.402;5.322;2022-12-07T15:49:18;5.60;99.90
11818;DHT22;5966;52.402;5.322;2022-12-07T15:51:59;5.60;99.90
11818;DHT22;5966;52.402;5.322;2022-12-07T15:54:30;5.60;99.90
11818;DHT22;5966;52.402;5.322;2022-12-07T15:57:02;5.60;99.90
11818;DHT22;5966;52.402;5.322;2022-12-07T15:59:30;5.60;99.90
11818;DHT22;5966;52.402;5.322;2022-12-07T16:01:58;5.60;99.90
11818;DHT22;5966;52.402;5.322;2022-12-07T16:04:28;5.60;99.90
11818;DHT22;5966;52.402;5.322;2022-12-07T16:06:56;5.60;99.90
11818;DHT22;5966;52.402;5.322;2022-12-07T16:09:24;5.60;99.90
11818;DHT22;5966;52.402;5.322;2022-12-07T16:11:53;5.60;99.90
11818;DHT22;5966;52.402;5.322;2022-12-07T16:16:52;5.60;99.90
11818;DHT22;5966;52.402;5.322;2022-12-07T16:19:20;5.60;99.90
11818;DHT22;5966;52.402;5.322;2022-12-07T16:21:56;5.60;99.90
11818;DHT22;5966;52.402;5.322;2022-12-07T16:24:25;5.60;99.90
11818;DHT22;5966;52.402;5.322;2022-12-07T16:26:57;5.60;99.90
11818;DHT22;5966;52.402;5.322;2022-12-07T16:29:25;5.60;99.90
11818;DHT22;5966;52.402;5.322;2022-12-07T16:32:06;5.60;99.90
11818;DHT22;5966;52.402;5.322;2022-12-07T16:34:35;5.60;99.90
11818;DHT22;5966;52.402;5.322;2022-12-07T16:37:09;5.60;99.90
11818;DHT22;5966;52.402;5.322;2022-12-07T16:39:38;5.60;99.90
11818;DHT22;5966;52.402;5.322;2022-12-07T16:42:06;5.60;99.90
11818;DHT22;5966;52.402;5.322;2022-12-07T16:44:37;5.60;99.90
11818;DHT22;5966;52.402;5.322;2022-12-07T16:47:05;5.60;99.90
11818;DHT22;5966;52.402;5.322;2022-12-07T16:49:36;5.50;99.90
11818;DHT22;5966;52.402;5.322;2022-12-07T16:52:04;5.40;99.90
11818;DHT22;5966;52.402;5.322;2022-12-07T16:54:48;5.40;99.90
11818;DHT22;5966;52.402;5.322;2022-12-07T16:57:17;5.50;99.90
11818;DHT22;5966;52.402;5.322;2022-12-07T16:59:50;5.40;99.90
11818;DHT22;5966;52.402;5.322;2022-12-07T17:02:18;5.50;99.90
11818;DHT22;5966;52.402;5.322;2022-12-07T17:04:46;5.50;99.90
11818;DHT22;5966;52.402;5.322;2022-12-07T17:07:14;5.50;99.90
11818;DHT22;5966;52.402;5.322;2022-12-07T17:09:53;5.50;99.90
11818;DHT22;5966;52.402;5.322;2022-12-07T17:12:21;5.50;99.90
11818;DHT22;5966;52.402;5.322;2022-12-07T17:14:50;5.50;99.90
11818;DHT22;5966;52.402;5.322;2022-12-07T17:17:39;5.50;99.90
11818;DHT22;5966;52.402;5.322;2022-12-07T17:20:15;5.50;99.90
11818;DHT22;5966;52.402;5.322;2022-12-07T17:22:46;5.50;99.90
11818;DHT22;5966;52.402;5.322;2022-12-07T17:25:20;5.50;99.90
11818;DHT22;5966;52.402;5.322;2022-12-07T17:27:52;5.50;99.90
11818;DHT22;5966;52.402;5.322;2022-12-07T17:30:34;5.50;99.90
11818;DHT22;5966;52.402;5.322;2022-12-07T17:33:40;5.50;99.90
11818;DHT22;5966;52.402;5.322;2022-12-07T17:36:25;5.40;99.90
11818;DHT22;5966;52.402;5.322;2022-12-07T17:39:19;5.40;99.90
11818;DHT22;5966;52.402;5.322;2022-12-07T17:42:00;5.50;99.90
11818;DHT22;5966;52.402;5.322;2022-12-07T17:45:16;5.50;99.90
11818;DHT22;5966;52.402;5.322;2022-12-07T17:48:01;5.50;99.90
11818;DHT22;5966;52.402;5.322;2022-12-07T17:50:30;5.50;99.90
11818;DHT22;5966;52.402;5.322;2022-12-07T17:53:17;5.50;99.90
11818;DHT22;5966;52.402;5.322;2022-12-07T17:56:05;5.50;99.90
11818;DHT22;5966;52.402;5.322;2022-12-07T17:58:57;5.40;99.90
11818;DHT22;5966;52.402;5.322;2022-12-07T18:01:31;5.50;99.90
11818;DHT22;5966;52.402;5.322;2022-12-07T18:04:04;5.40;99.90
11818;DHT22;5966;52.402;5.322;2022-12-07T18:06:42;5.40;99.90
11818;DHT22;5966;52.402;5.322;2022-12-07T18:09:23;5.40;99.90
11818;DHT22;5966;52.402;5.322;2022-12-07T18:15:23;5.40;99.90
11818;DHT22;5966;52.402;5.322;2022-12-07T18:18:22;5.30;99.90
11818;DHT22;5966;52.402;5.322;2022-12-07T18:21:06;5.30;99.90
11818;DHT22;5966;52.402;5.322;2022-12-07T18:23:43;5.20;99.90
11818;DHT22;5966;52.402;5.322;2022-12-07T18:26:24;5.30;99.90
11818;DHT22;5966;52.402;5.322;2022-12-07T18:29:01;5.30;99.90
11818;DHT22;5966;52.402;5.322;2022-12-07T18:31:56;5.30;99.90
11818;DHT22;5966;52.402;5.322;2022-12-07T18:34:46;5.30;99.90
11818;DHT22;5966;52.402;5.322;2022-12-07T18:37:40;5.30;99.90
11818;DHT22;5966;52.402;5.322;2022-12-07T18:40:20;5.30;99.90
11818;DHT22;5966;52.402;5.322;2022-12-07T18:42:55;5.20;99.90
11818;DHT22;5966;52.402;5.322;2022-12-07T18:45:27;5.20;99.90
11818;DHT22;5966;52.402;5.322;2022-12-07T18:48:11;5.10;99.90
11818;DHT22;5966;52.402;5.322;2022-12-07T18:53:51;5.20;99.90
11818;DHT22;5966;52.402;5.322;2022-12-07T18:56:39;5.20;99.90
11818;DHT22;5966;52.402;5.322;2022-12-07T18:59:19;5.20;99.90
11818;DHT22;5966;52.402;5.322;2022-12-07T19:02:10;5.20;99.90
11818;DHT22;5966;52.402;5.322;2022-12-07T19:05:00;5.20;99.90
11818;DHT22;5966;52.402;5.322;2022-12-07T19:07:29;5.10;99.90
11818;DHT22;5966;52.402;5.322;2022-12-07T19:10:03;5.10;99.90
11818;DHT22;5966;52.402;5.322;2022-12-07T19:12:36;5.00;99.90
11818;DHT22;5966;52.402;5.322;2022-12-07T19:15:06;4.90;99.90
11818;DHT22;5966;52.402;5.322;2022-12-07T19:17:36;4.90;99.90
11818;DHT22;5966;52.402;5.322;2022-12-07T19:20:12;4.80;99.90
11818;DHT22;5966;52.402;5.322;2022-12-07T19:22:42;4.80;99.90